createdAt,value
2022-12-31T00:03:18.935Z,1
2022-12-31T00:04:18.784Z,2
2022-12-31T00:05:18.791Z,2
2022-12-31T00:06:18.789Z,2
2022-12-31T00:07:18.815Z,3
2022-12-31T00:08:18.790Z,3
2022-12-31T00:09:18.799Z,2
2022-12-31T00:10:18.790Z,2
2022-12-31T00:12:18.780Z,1
2022-12-31T00:13:18.780Z,2
2022-12-31T00:14:18.852Z,3
2022-12-31T00:15:18.793Z,2
2022-12-31T00:16:18.828Z,1
2022-12-31T00:17:18.786Z,2
2022-12-31T00:18:18.785Z,1
2022-12-31T00:19:18.821Z,2
2022-12-31T00:20:18.782Z,2
2022-12-31T00:21:18.793Z,2
2022-12-31T00:22:18.789Z,1
2022-12-31T00:23:18.783Z,2
2022-12-31T00:25:18.794Z,1
2022-12-31T00:26:18.800Z,1
2022-12-31T00:27:18.791Z,3
2022-12-31T00:28:18.789Z,2
2022-12-31T00:29:18.785Z,2
2022-12-31T00:30:18.805Z,2
2022-12-31T00:31:18.872Z,2
2022-12-31T00:32:18.793Z,1
2022-12-31T00:33:18.847Z,2
2022-12-31T00:34:18.853Z,1
2022-12-31T00:35:18.844Z,2
2022-12-31T00:36:18.863Z,2
2022-12-31T00:37:18.844Z,2
2022-12-31T00:38:18.846Z,2
2022-12-31T00:39:18.849Z,2
2022-12-31T00:40:18.847Z,2
2022-12-31T00:41:18.851Z,1
2022-12-31T00:42:18.849Z,2
2022-12-31T00:43:18.843Z,2
2022-12-31T00:45:18.860Z,2
2022-12-31T00:46:18.950Z,2
2022-12-31T00:47:18.851Z,3
2022-12-31T00:48:18.944Z,4
2022-12-31T00:49:18.946Z,4
2022-12-31T00:50:18.933Z,4
2022-12-31T00:51:18.922Z,3
2022-12-31T00:52:18.942Z,4
2022-12-31T00:54:18.934Z,3
2022-12-31T00:55:18.927Z,2
2022-12-31T00:56:18.935Z,2
2022-12-31T00:57:18.944Z,2
2022-12-31T00:58:18.938Z,2
2022-12-31T00:59:18.933Z,2
2022-12-31T01:00:18.949Z,2
2022-12-31T01:01:19.177Z,1
2022-12-31T01:02:19.144Z,2
2022-12-31T01:03:19.071Z,2
2022-12-31T01:04:18.950Z,3
2022-12-31T01:05:18.940Z,1
2022-12-31T01:06:19.133Z,1
2022-12-31T01:12:29.754Z,3
2022-12-31T01:18:40.363Z,4
2022-12-31T01:20:31.559Z,4
2022-12-31T01:25:28.042Z,4
2022-12-31T01:27:19.622Z,4
2022-12-31T01:39:40.988Z,5
2022-12-31T01:48:19.892Z,3
2022-12-31T02:00:41.239Z,3
2022-12-31T02:09:19.494Z,2
2022-12-31T02:10:29.434Z,2
2022-12-31T02:11:18.848Z,2
2022-12-31T02:12:18.945Z,1
2022-12-31T02:13:18.845Z,1
2022-12-31T02:14:18.833Z,1
2022-12-31T02:15:18.829Z,1
2022-12-31T02:16:18.862Z,1
2022-12-31T02:17:18.847Z,3
2022-12-31T02:18:18.831Z,1
2022-12-31T02:19:18.877Z,1
2022-12-31T02:20:18.853Z,1
2022-12-31T02:21:18.831Z,3
2022-12-31T02:22:18.832Z,1
2022-12-31T02:23:18.834Z,1
2022-12-31T02:24:18.911Z,1
2022-12-31T02:25:18.832Z,2
2022-12-31T02:26:18.825Z,1
2022-12-31T02:27:18.832Z,1
2022-12-31T02:28:18.836Z,1
2022-12-31T02:29:18.836Z,2
2022-12-31T02:30:18.839Z,1
2022-12-31T02:31:18.904Z,3
2022-12-31T02:32:18.844Z,1
2022-12-31T02:33:18.831Z,1
2022-12-31T02:34:18.826Z,1
2022-12-31T02:35:18.838Z,2
2022-12-31T02:36:18.860Z,2
2022-12-31T02:37:18.835Z,2
2022-12-31T02:38:18.845Z,1
2022-12-31T02:39:18.846Z,1
2022-12-31T02:40:18.839Z,1
2022-12-31T02:41:18.888Z,1
2022-12-31T02:42:18.853Z,2
2022-12-31T02:43:18.834Z,1
2022-12-31T02:44:18.863Z,2
2022-12-31T02:45:18.844Z,1
2022-12-31T02:46:18.897Z,1
2022-12-31T02:47:18.841Z,2
2022-12-31T02:48:18.840Z,1
2022-12-31T02:49:18.841Z,1
2022-12-31T02:50:18.842Z,1
2022-12-31T02:51:18.932Z,1
2022-12-31T02:52:18.885Z,2
2022-12-31T02:53:18.914Z,2
2022-12-31T02:54:18.900Z,1
2022-12-31T02:55:18.937Z,1
2022-12-31T02:56:18.892Z,2
2022-12-31T02:57:18.882Z,1
2022-12-31T02:58:18.879Z,1
2022-12-31T02:59:18.920Z,1
2022-12-31T03:00:18.981Z,0
2022-12-31T03:01:19.126Z,1
2022-12-31T03:02:19.017Z,1
2022-12-31T03:03:18.945Z,1
2022-12-31T03:04:18.897Z,0
2022-12-31T03:05:18.893Z,1
2022-12-31T03:06:18.896Z,1
2022-12-31T03:07:18.897Z,1
2022-12-31T03:08:18.982Z,1
2022-12-31T03:09:19.012Z,0
2022-12-31T03:10:18.994Z,0
2022-12-31T03:11:18.988Z,1
2022-12-31T03:12:18.979Z,0
2022-12-31T03:13:18.990Z,1
2022-12-31T03:15:18.981Z,0
2022-12-31T03:16:19.091Z,1
2022-12-31T03:17:18.985Z,1
2022-12-31T03:18:18.986Z,1
2022-12-31T03:19:18.980Z,0
2022-12-31T03:20:19.044Z,3
2022-12-31T03:21:19.007Z,1
2022-12-31T03:22:18.980Z,1
2022-12-31T03:23:19.176Z,1
2022-12-31T03:29:29.797Z,2
2022-12-31T03:35:40.407Z,1
2022-12-31T03:37:31.612Z,1
2022-12-31T03:42:28.100Z,2
2022-12-31T03:51:07.398Z,2
2022-12-31T03:57:18.087Z,1
2022-12-31T04:12:07.672Z,1
2022-12-31T04:13:21.821Z,1
2022-12-31T04:18:18.405Z,2
2022-12-31T04:24:31.469Z,2
2022-12-31T04:25:18.879Z,2
2022-12-31T04:26:18.888Z,3
2022-12-31T04:27:18.877Z,2
2022-12-31T04:28:18.895Z,1
2022-12-31T04:29:18.875Z,2
2022-12-31T04:30:18.890Z,1
2022-12-31T04:31:18.945Z,2
2022-12-31T04:32:18.919Z,1
2022-12-31T04:33:18.890Z,1
2022-12-31T04:34:18.882Z,2
2022-12-31T04:35:18.889Z,1
2022-12-31T04:36:18.891Z,1
2022-12-31T04:37:18.914Z,1
2022-12-31T04:39:18.881Z,1
2022-12-31T04:40:18.884Z,2
2022-12-31T04:41:18.881Z,1
2022-12-31T04:42:18.887Z,1
2022-12-31T04:43:18.890Z,2
2022-12-31T04:44:18.878Z,1
2022-12-31T04:45:18.880Z,2
2022-12-31T04:46:18.920Z,2
2022-12-31T04:47:23.666Z,2
2022-12-31T04:50:18.906Z,2
2022-12-31T04:51:18.886Z,1
2022-12-31T04:52:18.957Z,1
2022-12-31T04:53:18.899Z,1
2022-12-31T04:54:18.884Z,2
2022-12-31T04:55:18.886Z,1
2022-12-31T04:56:18.885Z,1
2022-12-31T04:57:18.895Z,2
2022-12-31T04:58:19.285Z,2
2022-12-31T04:59:18.890Z,3
2022-12-31T05:00:18.900Z,2
2022-12-31T05:01:19.063Z,2
2022-12-31T05:02:19.120Z,2
2022-12-31T05:03:18.942Z,1
2022-12-31T05:04:18.899Z,1
2022-12-31T05:05:18.939Z,1
2022-12-31T05:06:18.944Z,1
2022-12-31T05:07:18.959Z,2
2022-12-31T05:08:18.951Z,2
2022-12-31T05:09:18.953Z,2
2022-12-31T05:11:18.938Z,2
2022-12-31T05:12:18.966Z,2
2022-12-31T05:13:18.941Z,1
2022-12-31T05:14:18.952Z,2
2022-12-31T05:15:18.951Z,2
2022-12-31T05:16:18.982Z,3
2022-12-31T05:17:18.952Z,2
2022-12-31T05:18:18.972Z,3
2022-12-31T05:19:18.995Z,1
2022-12-31T05:20:18.949Z,1
2022-12-31T05:21:19.034Z,1
2022-12-31T05:22:19.042Z,1
2022-12-31T05:23:19.033Z,2
2022-12-31T05:25:19.036Z,1
2022-12-31T05:26:19.046Z,1
2022-12-31T05:27:19.045Z,2
2022-12-31T05:28:19.033Z,2
2022-12-31T05:29:19.053Z,2
2022-12-31T05:30:19.048Z,1
2022-12-31T05:31:19.070Z,2
2022-12-31T05:32:19.122Z,2
2022-12-31T05:33:19.043Z,3
2022-12-31T05:35:19.079Z,2
2022-12-31T05:36:19.034Z,1
2022-12-31T05:37:19.234Z,2
2022-12-31T05:43:29.859Z,2
2022-12-31T05:49:40.536Z,2
2022-12-31T05:56:28.147Z,2
2022-12-31T05:57:42.644Z,2
2022-12-31T06:05:07.472Z,2
2022-12-31T06:06:21.583Z,2
2022-12-31T06:11:18.116Z,2
2022-12-31T06:26:07.718Z,2
2022-12-31T06:27:21.857Z,3
2022-12-31T06:32:18.391Z,3
2022-12-31T07:20:30.538Z,5
2022-12-31T07:28:29.014Z,2
2022-12-31T07:30:18.949Z,2
2022-12-31T07:31:18.972Z,6
2022-12-31T07:32:18.956Z,2
2022-12-31T07:33:18.963Z,3
2022-12-31T07:34:18.960Z,4
2022-12-31T07:35:18.983Z,2
2022-12-31T07:36:18.954Z,2
2022-12-31T07:39:18.950Z,2
2022-12-31T07:40:19.563Z,2
2022-12-31T07:41:18.959Z,3
2022-12-31T07:42:18.948Z,2
2022-12-31T07:43:18.998Z,3
2022-12-31T07:44:18.958Z,2
2022-12-31T07:45:18.954Z,2
2022-12-31T07:46:18.988Z,2
2022-12-31T07:47:18.958Z,3
2022-12-31T07:48:18.962Z,2
2022-12-31T07:49:18.950Z,2
2022-12-31T07:51:18.968Z,2
2022-12-31T07:52:18.964Z,3
2022-12-31T07:53:19.008Z,2
2022-12-31T07:54:18.959Z,2
2022-12-31T07:55:18.958Z,3
2022-12-31T07:56:19.162Z,4
2022-12-31T07:57:18.962Z,3
2022-12-31T07:58:19.040Z,3
2022-12-31T07:59:23.927Z,3
2022-12-31T08:00:18.968Z,3
2022-12-31T08:01:19.104Z,2
2022-12-31T08:02:19.061Z,3
2022-12-31T08:03:18.959Z,3
2022-12-31T08:04:18.960Z,4
2022-12-31T08:05:19.000Z,2
2022-12-31T08:06:18.964Z,1
2022-12-31T08:07:18.973Z,3
2022-12-31T08:08:18.987Z,2
2022-12-31T08:10:18.998Z,3
2022-12-31T08:12:19.008Z,4
2022-12-31T08:13:19.013Z,3
2022-12-31T08:14:19.033Z,3
2022-12-31T08:15:19.029Z,5
2022-12-31T08:16:19.092Z,3
2022-12-31T08:17:19.024Z,2
2022-12-31T08:18:19.020Z,3
2022-12-31T08:19:19.011Z,3
2022-12-31T08:20:19.035Z,2
2022-12-31T08:21:19.030Z,1
2022-12-31T08:22:19.029Z,3
2022-12-31T08:24:19.016Z,5
2022-12-31T08:25:19.015Z,3
2022-12-31T08:26:19.019Z,3
2022-12-31T08:27:19.115Z,2
2022-12-31T08:28:19.101Z,3
2022-12-31T08:29:19.115Z,4
2022-12-31T08:31:19.161Z,5
2022-12-31T08:32:19.106Z,3
2022-12-31T08:34:19.106Z,3
2022-12-31T08:35:19.100Z,2
2022-12-31T08:36:19.116Z,1
2022-12-31T08:37:19.122Z,3
2022-12-31T08:38:19.093Z,3
2022-12-31T08:39:19.165Z,4
2022-12-31T08:40:19.150Z,4
2022-12-31T08:41:19.122Z,1
2022-12-31T08:42:19.107Z,2
2022-12-31T08:43:19.299Z,3
2022-12-31T08:45:47.599Z,2
2022-12-31T08:49:29.918Z,4
2022-12-31T08:50:44.044Z,1
2022-12-31T09:02:28.228Z,3
2022-12-31T09:11:07.528Z,4
2022-12-31T09:12:21.665Z,3
2022-12-31T09:17:18.186Z,3
2022-12-31T09:24:43.000Z,2
2022-12-31T09:25:57.170Z,3
2022-12-31T09:32:07.827Z,4
2022-12-31T09:33:21.930Z,5
2022-12-31T09:38:18.475Z,3
2022-12-31T09:59:19.012Z,2
2022-12-31T10:00:19.115Z,3
2022-12-31T10:01:19.177Z,3
2022-12-31T10:02:19.201Z,2
2022-12-31T10:03:19.095Z,2
2022-12-31T10:04:19.020Z,3
2022-12-31T10:05:19.035Z,3
2022-12-31T10:06:19.019Z,4
2022-12-31T10:07:19.036Z,2
2022-12-31T10:08:19.013Z,4
2022-12-31T10:09:19.022Z,3
2022-12-31T10:10:19.052Z,3
2022-12-31T10:11:19.024Z,4
2022-12-31T10:12:19.024Z,5
2022-12-31T10:13:19.025Z,2
2022-12-31T10:14:19.026Z,4
2022-12-31T10:15:19.020Z,2
2022-12-31T10:16:19.120Z,3
2022-12-31T10:17:19.026Z,4
2022-12-31T10:18:19.042Z,5
2022-12-31T10:19:19.025Z,5
2022-12-31T10:20:19.067Z,3
2022-12-31T10:21:19.289Z,2
2022-12-31T10:23:19.023Z,3
2022-12-31T10:24:19.051Z,3
2022-12-31T10:25:19.050Z,2
2022-12-31T10:26:19.042Z,2
2022-12-31T10:27:19.040Z,4
2022-12-31T10:28:19.038Z,4
2022-12-31T10:29:19.031Z,4
2022-12-31T10:30:19.136Z,6
2022-12-31T10:31:19.095Z,3
2022-12-31T10:32:19.038Z,2
2022-12-31T10:33:19.031Z,5
2022-12-31T10:34:19.025Z,2
2022-12-31T10:35:19.031Z,4
2022-12-31T10:36:19.055Z,4
2022-12-31T10:38:19.044Z,5
2022-12-31T10:39:24.200Z,5
2022-12-31T10:40:19.086Z,3
2022-12-31T10:41:19.080Z,4
2022-12-31T10:42:19.081Z,4
2022-12-31T10:43:19.073Z,4
2022-12-31T10:44:19.075Z,3
2022-12-31T10:45:19.091Z,5
2022-12-31T10:46:22.708Z,4
2022-12-31T10:47:19.081Z,4
2022-12-31T10:48:19.127Z,3
2022-12-31T10:49:19.085Z,3
2022-12-31T10:50:19.122Z,3
2022-12-31T10:51:19.097Z,3
2022-12-31T10:52:19.100Z,3
2022-12-31T10:53:19.082Z,3
2022-12-31T10:54:19.087Z,3
2022-12-31T10:55:19.192Z,4
2022-12-31T10:56:19.195Z,3
2022-12-31T10:57:19.170Z,4
2022-12-31T10:58:19.177Z,3
2022-12-31T10:59:19.176Z,3
2022-12-31T11:00:19.175Z,4
2022-12-31T11:01:19.302Z,5
2022-12-31T11:02:19.357Z,3
2022-12-31T11:03:25.102Z,3
2022-12-31T11:04:19.177Z,3
2022-12-31T11:05:19.175Z,2
2022-12-31T11:06:19.199Z,3
2022-12-31T11:07:19.172Z,5
2022-12-31T11:09:19.172Z,5
2022-12-31T11:10:19.169Z,3
2022-12-31T11:11:19.185Z,4
2022-12-31T11:12:19.366Z,3
2022-12-31T11:26:31.801Z,3
2022-12-31T11:31:28.408Z,4
2022-12-31T11:33:19.856Z,5
2022-12-31T11:35:30.289Z,5
2022-12-31T11:36:19.054Z,4
2022-12-31T11:37:19.112Z,4
2022-12-31T11:38:19.041Z,3
2022-12-31T11:39:19.068Z,3
2022-12-31T11:40:19.087Z,4
2022-12-31T11:41:19.067Z,2
2022-12-31T11:42:19.061Z,5
2022-12-31T11:44:19.092Z,4
2022-12-31T11:45:19.059Z,4
2022-12-31T11:46:19.162Z,3
2022-12-31T11:47:19.067Z,3
2022-12-31T11:48:34.448Z,5
2022-12-31T11:49:19.072Z,3
2022-12-31T11:50:19.082Z,3
2022-12-31T11:51:19.085Z,4
2022-12-31T11:52:21.546Z,2
2022-12-31T11:53:19.086Z,7
2022-12-31T11:54:19.082Z,6
2022-12-31T11:55:19.091Z,5
2022-12-31T11:56:19.073Z,3
2022-12-31T11:57:19.066Z,3
2022-12-31T11:58:19.076Z,3
2022-12-31T11:59:19.953Z,3
2022-12-31T12:00:19.076Z,7
2022-12-31T12:01:19.108Z,3
2022-12-31T12:02:19.166Z,2
2022-12-31T12:03:19.070Z,3
2022-12-31T12:04:19.104Z,3
2022-12-31T12:05:19.064Z,3
2022-12-31T12:06:19.069Z,2
2022-12-31T12:07:19.065Z,3
2022-12-31T12:08:19.104Z,3
2022-12-31T12:09:19.075Z,4
2022-12-31T12:10:19.065Z,3
2022-12-31T12:11:19.089Z,4
2022-12-31T12:12:19.071Z,3
2022-12-31T12:13:19.063Z,5
2022-12-31T12:14:19.158Z,5
2022-12-31T12:15:19.073Z,4
2022-12-31T12:16:19.199Z,6
2022-12-31T12:17:19.124Z,3
2022-12-31T12:18:19.123Z,5
2022-12-31T12:19:19.129Z,6
2022-12-31T12:20:19.122Z,7
2022-12-31T12:21:19.130Z,3
2022-12-31T12:22:19.125Z,5
2022-12-31T12:23:19.134Z,5
2022-12-31T12:24:19.132Z,3
2022-12-31T12:26:19.117Z,4
2022-12-31T12:27:19.138Z,3
2022-12-31T12:28:19.130Z,4
2022-12-31T12:29:19.129Z,4
2022-12-31T12:30:19.124Z,6
2022-12-31T12:31:19.180Z,6
2022-12-31T12:32:19.223Z,5
2022-12-31T12:33:19.213Z,4
2022-12-31T12:34:19.216Z,5
2022-12-31T12:35:19.222Z,7
2022-12-31T12:36:19.216Z,4
2022-12-31T12:37:19.225Z,3
2022-12-31T12:38:19.207Z,6
2022-12-31T12:39:20.980Z,4
2022-12-31T12:40:19.217Z,2
2022-12-31T12:41:19.225Z,4
2022-12-31T12:42:19.221Z,4
2022-12-31T12:43:19.228Z,5
2022-12-31T12:44:19.239Z,4
2022-12-31T12:45:19.260Z,4
2022-12-31T12:46:19.292Z,3
2022-12-31T12:47:19.227Z,5
2022-12-31T12:48:19.409Z,4
2022-12-31T12:54:30.024Z,4
2022-12-31T12:55:44.150Z,3
2022-12-31T12:58:49.459Z,5
2022-12-31T13:00:40.719Z,3
2022-12-31T13:02:31.915Z,4
2022-12-31T13:07:28.347Z,5
2022-12-31T13:09:19.927Z,3
2022-12-31T13:16:44.809Z,7
2022-12-31T13:18:40.672Z,3
2022-12-31T13:19:29.824Z,5
2022-12-31T13:20:19.089Z,4
2022-12-31T13:21:19.088Z,4
2022-12-31T13:22:19.089Z,4
2022-12-31T13:23:19.096Z,6
2022-12-31T13:24:19.089Z,3
2022-12-31T13:25:19.107Z,4
2022-12-31T13:26:19.093Z,4
2022-12-31T13:27:19.096Z,4
2022-12-31T13:28:19.103Z,5
2022-12-31T13:29:19.098Z,6
2022-12-31T13:30:19.101Z,4
2022-12-31T13:31:19.161Z,4
2022-12-31T13:33:19.109Z,4
2022-12-31T13:34:19.114Z,4
2022-12-31T13:35:19.093Z,4
2022-12-31T13:36:19.095Z,3
2022-12-31T13:37:19.099Z,4
2022-12-31T13:38:19.168Z,2
2022-12-31T13:39:19.104Z,3
2022-12-31T13:40:19.126Z,4
2022-12-31T13:41:19.106Z,5
2022-12-31T13:42:19.101Z,5
2022-12-31T13:43:19.115Z,4
2022-12-31T13:44:19.112Z,3
2022-12-31T13:45:19.107Z,3
2022-12-31T13:46:19.152Z,5
2022-12-31T13:47:19.140Z,6
2022-12-31T13:48:19.126Z,4
2022-12-31T13:49:19.120Z,4
2022-12-31T13:50:19.108Z,4
2022-12-31T13:51:19.139Z,4
2022-12-31T13:52:19.113Z,4
2022-12-31T13:53:19.113Z,3
2022-12-31T13:54:19.108Z,6
2022-12-31T13:55:19.126Z,5
2022-12-31T13:56:19.107Z,4
2022-12-31T13:57:19.111Z,3
2022-12-31T13:58:19.117Z,5
2022-12-31T13:59:19.160Z,8
2022-12-31T14:00:19.162Z,6
2022-12-31T14:01:19.239Z,4
2022-12-31T14:02:19.422Z,8
2022-12-31T14:03:19.176Z,4
2022-12-31T14:04:19.155Z,6
2022-12-31T14:05:19.196Z,4
2022-12-31T14:06:19.173Z,4
2022-12-31T14:07:19.153Z,6
2022-12-31T14:08:19.167Z,4
2022-12-31T14:09:19.157Z,8
2022-12-31T14:10:19.185Z,4
2022-12-31T14:11:20.125Z,5
2022-12-31T14:12:19.203Z,4
2022-12-31T14:13:19.154Z,5
2022-12-31T14:14:19.159Z,5
2022-12-31T14:15:19.256Z,7
2022-12-31T14:16:19.295Z,5
2022-12-31T14:17:19.252Z,6
2022-12-31T14:18:19.251Z,4
2022-12-31T14:19:19.253Z,5
2022-12-31T14:20:19.260Z,6
2022-12-31T14:22:19.246Z,5
2022-12-31T14:23:19.248Z,5
2022-12-31T14:24:19.252Z,5
2022-12-31T14:25:19.245Z,5
2022-12-31T14:26:19.253Z,3
2022-12-31T14:27:19.263Z,5
2022-12-31T14:30:19.246Z,4
2022-12-31T14:31:19.447Z,4
2022-12-31T14:37:30.049Z,5
2022-12-31T14:38:44.254Z,5
2022-12-31T14:43:40.677Z,5
2022-12-31T14:45:31.927Z,6
2022-12-31T14:48:37.176Z,6
2022-12-31T14:50:28.365Z,5
2022-12-31T14:51:42.874Z,6
2022-12-31T14:54:38.230Z,6
2022-12-31T14:55:28.858Z,5
2022-12-31T14:57:19.139Z,4
2022-12-31T14:58:28.439Z,4
2022-12-31T14:59:19.136Z,5
2022-12-31T15:00:19.156Z,4
2022-12-31T15:01:19.451Z,5
2022-12-31T15:02:19.249Z,4
2022-12-31T15:03:19.179Z,4
2022-12-31T15:04:19.155Z,6
2022-12-31T15:05:19.165Z,5
2022-12-31T15:06:19.152Z,5
2022-12-31T15:07:19.171Z,5
2022-12-31T15:08:19.160Z,4
2022-12-31T15:09:19.161Z,6
2022-12-31T15:10:19.151Z,5
2022-12-31T15:11:19.222Z,7
2022-12-31T15:12:19.185Z,6
2022-12-31T15:13:19.180Z,6
2022-12-31T15:14:19.154Z,4
2022-12-31T15:15:19.145Z,6
2022-12-31T15:16:19.205Z,6
2022-12-31T15:17:19.142Z,5
2022-12-31T15:18:19.149Z,3
2022-12-31T15:19:19.274Z,6
2022-12-31T15:20:19.147Z,4
2022-12-31T15:21:19.152Z,4
2022-12-31T15:22:19.149Z,4
2022-12-31T15:23:19.144Z,4
2022-12-31T15:24:19.141Z,5
2022-12-31T15:25:19.153Z,3
2022-12-31T15:26:19.145Z,5
2022-12-31T15:27:19.199Z,5
2022-12-31T15:28:19.207Z,5
2022-12-31T15:29:19.154Z,5
2022-12-31T15:30:19.155Z,6
2022-12-31T15:31:19.913Z,4
2022-12-31T15:32:19.156Z,5
2022-12-31T15:33:19.202Z,4
2022-12-31T15:34:19.152Z,5
2022-12-31T15:35:19.182Z,4
2022-12-31T15:36:19.156Z,4
2022-12-31T15:37:19.156Z,4
2022-12-31T15:38:19.199Z,4
2022-12-31T15:39:19.224Z,4
2022-12-31T15:40:19.205Z,6
2022-12-31T15:41:19.215Z,6
2022-12-31T15:42:37.470Z,5
2022-12-31T15:43:19.232Z,4
2022-12-31T15:44:19.209Z,5
2022-12-31T15:45:19.204Z,5
2022-12-31T15:46:19.238Z,5
2022-12-31T15:47:19.209Z,4
2022-12-31T15:48:19.205Z,6
2022-12-31T15:49:19.205Z,4
2022-12-31T15:50:19.209Z,5
2022-12-31T15:51:19.206Z,4
2022-12-31T15:52:19.212Z,5
2022-12-31T15:53:19.207Z,5
2022-12-31T15:54:19.294Z,4
2022-12-31T15:55:19.298Z,3
2022-12-31T15:56:19.297Z,5
2022-12-31T15:57:19.286Z,4
2022-12-31T15:58:19.295Z,5
2022-12-31T15:59:19.320Z,7
2022-12-31T16:00:19.304Z,4
2022-12-31T16:02:19.574Z,4
2022-12-31T16:04:19.379Z,4
2022-12-31T16:05:19.353Z,4
2022-12-31T16:06:19.297Z,3
2022-12-31T16:07:19.303Z,4
2022-12-31T16:08:19.324Z,5
2022-12-31T16:09:19.306Z,4
2022-12-31T16:10:19.497Z,4
2022-12-31T16:16:30.158Z,6
2022-12-31T16:17:44.222Z,4
2022-12-31T16:22:40.730Z,4
2022-12-31T16:24:31.932Z,3
2022-12-31T16:27:37.220Z,5
2022-12-31T16:29:28.408Z,4
2022-12-31T16:31:20.117Z,4
2022-12-31T16:38:44.782Z,3
2022-12-31T16:43:41.372Z,4
2022-12-31T16:51:19.727Z,3
2022-12-31T16:51:41.344Z,4
2022-12-31T16:52:30.508Z,4
2022-12-31T16:53:19.224Z,4
2022-12-31T16:54:19.185Z,4
2022-12-31T16:55:19.196Z,4
2022-12-31T16:57:19.189Z,4
2022-12-31T16:58:19.184Z,3
2022-12-31T16:59:19.215Z,3
2022-12-31T17:00:19.192Z,3
2022-12-31T17:01:19.422Z,4
2022-12-31T17:02:19.260Z,4
2022-12-31T17:03:19.277Z,3
2022-12-31T17:04:19.180Z,5
2022-12-31T17:05:19.185Z,4
2022-12-31T17:06:19.453Z,6
2022-12-31T17:07:19.197Z,5
2022-12-31T17:08:19.197Z,4
2022-12-31T17:09:19.206Z,6
2022-12-31T17:10:19.185Z,4
2022-12-31T17:11:23.389Z,6
2022-12-31T17:12:19.194Z,5
2022-12-31T17:13:28.491Z,3
2022-12-31T17:15:19.191Z,6
2022-12-31T17:16:19.218Z,5
2022-12-31T17:17:19.195Z,7
2022-12-31T17:18:19.196Z,5
2022-12-31T17:19:19.196Z,4
2022-12-31T17:21:19.240Z,6
2022-12-31T17:23:19.197Z,6
2022-12-31T17:24:19.192Z,3
2022-12-31T17:25:19.208Z,5
2022-12-31T17:26:19.270Z,4
2022-12-31T17:27:19.201Z,5
2022-12-31T17:28:19.244Z,4
2022-12-31T17:30:19.260Z,6
2022-12-31T17:31:19.229Z,5
2022-12-31T17:32:19.199Z,4
2022-12-31T17:33:19.204Z,4
2022-12-31T17:35:19.245Z,6
2022-12-31T17:36:19.267Z,4
2022-12-31T17:37:19.256Z,5
2022-12-31T17:38:19.257Z,7
2022-12-31T17:39:19.245Z,5
2022-12-31T17:40:49.952Z,8
2022-12-31T17:41:19.257Z,6
2022-12-31T17:42:19.259Z,4
2022-12-31T17:43:19.258Z,6
2022-12-31T17:44:19.251Z,5
2022-12-31T17:45:19.254Z,4
2022-12-31T17:46:19.308Z,4
2022-12-31T17:47:19.289Z,3
2022-12-31T17:48:19.261Z,5
2022-12-31T17:49:19.250Z,6
2022-12-31T17:50:19.358Z,4
2022-12-31T17:51:24.571Z,5
2022-12-31T17:52:19.346Z,4
2022-12-31T17:53:19.372Z,4
2022-12-31T17:54:19.337Z,5
2022-12-31T17:55:19.353Z,6
2022-12-31T17:56:19.348Z,4
2022-12-31T17:57:19.387Z,4
2022-12-31T17:58:20.370Z,4
2022-12-31T17:59:19.349Z,5
2022-12-31T18:00:19.338Z,5
2022-12-31T18:01:19.482Z,4
2022-12-31T18:02:19.433Z,4
2022-12-31T18:03:19.338Z,4
2022-12-31T18:04:19.343Z,4
2022-12-31T18:05:19.348Z,4
2022-12-31T18:06:19.910Z,5
2022-12-31T18:12:30.160Z,9
2022-12-31T18:13:44.275Z,4
2022-12-31T18:18:40.779Z,5
2022-12-31T18:20:31.964Z,4
2022-12-31T18:23:37.274Z,5
2022-12-31T18:27:20.051Z,5
2022-12-31T18:29:48.313Z,4
2022-12-31T18:34:44.839Z,6
2022-12-31T18:39:41.368Z,5
2022-12-31T18:48:20.332Z,6
2022-12-31T18:55:45.111Z,5
2022-12-31T19:00:41.705Z,5
2022-12-31T19:09:44.780Z,4
2022-12-31T19:19:40.652Z,6
2022-12-31T19:20:30.796Z,4
2022-12-31T19:24:19.246Z,5
2022-12-31T19:36:19.258Z,6
2022-12-31T20:31:19.478Z,6
2022-12-31T20:40:30.213Z,8
2022-12-31T20:41:44.339Z,7
2022-12-31T20:43:35.585Z,7
2022-12-31T20:45:26.717Z,8
2022-12-31T20:46:40.902Z,8
2022-12-31T20:48:32.026Z,6
2022-12-31T20:50:10.434Z,9
2022-12-31T20:51:37.371Z,7
2022-12-31T20:53:28.518Z,11
2022-12-31T21:01:36.353Z,8
2022-12-31T22:21:44.373Z,7
2022-12-31T22:23:35.572Z,8
2022-12-31T22:26:46.406Z,7
2022-12-31T22:29:46.188Z,8
2022-12-31T22:31:37.387Z,5
2022-12-31T22:38:25.457Z,7
2022-12-31T22:42:07.859Z,11
2022-12-31T22:50:46.800Z,6
2022-12-31T22:55:43.348Z,7
2022-12-31T22:59:26.755Z,8
2022-12-31T23:03:08.174Z,8
2022-12-31T23:11:47.123Z,95
2022-12-31T23:18:39.259Z,73
